Time;durP1;ratioP1;P1;durP2;ratioP2;P2;SDS_P1;SDS_P2;PMS_P1;PMS_P2;Temp;Humidity;BMP_temperature;BMP_pressure;BME280_temperature;BME280_humidity;BME280_pressure;Samples;Min_cycle;Max_cycle;Signal;HPM_P1;HPM_P2
2023/03/13 00:01:13;;;;;;;;;;;11.50;83.20;;;11.84;51.62;98247.38;4956768;28;108918;-85
2023/03/13 00:03:39;;;;;;;;;;;11.50;83.10;;;11.78;51.86;98243.97;4953257;28;124183;-85
2023/03/13 00:06:06;;;;;;;;;;;11.50;83.00;;;11.74;52.06;98237.50;4965488;28;124740;-84
2023/03/13 00:08:32;;;;;;;;;;;11.50;83.10;;;11.71;51.86;98241.75;4965451;28;108997;-83
2023/03/13 00:11:04;;;;;;;;;;;11.50;83.10;;;11.69;52.02;98235.72;4970835;28;109966;-84
2023/03/13 00:13:31;;;;;;;;;;;11.40;83.10;;;11.67;52.04;98243.53;4962034;28;124678;-85
2023/03/13 00:16:06;;;;;;;;;;;11.40;83.20;;;11.66;52.36;98239.16;4966852;28;123618;-83
2023/03/13 00:18:32;;;;;;;;;;;11.40;83.40;;;11.64;52.67;98233.16;4982446;28;109194;-83
2023/03/13 00:21:06;;;;;;;;;;;11.40;83.40;;;11.64;52.48;98246.19;4971511;28;108897;-86
2023/03/13 00:23:34;;;;;;;;;;;11.40;83.50;;;11.61;52.54;98236.59;4956368;28;125434;-86
2023/03/13 00:26:11;;;;;;;;;;;11.30;83.50;;;11.60;52.33;98239.69;4967491;28;123623;-85
2023/03/13 00:28:39;;;;;;;;;;;11.30;83.60;;;11.59;52.48;98232.53;4958462;28;110561;-84
2023/03/13 00:31:11;;;;;;;;;;;11.30;83.70;;;11.58;52.78;98233.66;4959547;28;109772;-87
2023/03/13 00:33:39;;;;;;;;;;;11.30;83.90;;;11.56;52.55;98224.91;4949399;28;123881;-87
2023/03/13 00:36:11;;;;;;;;;;;11.30;84.00;;;11.57;52.63;98229.28;4987978;28;123371;-88
2023/03/13 00:38:37;;;;;;;;;;;11.30;84.10;;;11.55;52.68;98231.56;4977581;28;109345;-85
2023/03/13 00:41:15;;;;;;;;;;;11.20;84.10;;;11.52;52.60;98226.69;4955257;28;108631;-86
2023/03/13 00:43:42;;;;;;;;;;;11.20;84.10;;;11.49;52.95;98225.41;4950016;28;124155;-85
2023/03/13 00:46:09;;;;;;;;;;;11.20;84.20;;;11.49;52.60;98225.41;4957309;28;123743;-86
2023/03/13 00:48:37;;;;;;;;;;;11.20;84.30;;;11.47;53.30;98214.69;4964903;28;108794;-89
2023/03/13 00:51:03;;;;;;;;;;;11.20;84.40;;;11.46;53.08;98215.00;4968076;28;108423;-86
2023/03/13 00:53:30;;;;;;;;;;;11.20;84.50;;;11.46;53.33;98209.47;4959831;28;124827;-85
2023/03/13 00:55:59;;;;;;;;;;;11.20;84.60;;;11.46;53.34;98210.28;4972887;28;124038;-85
2023/03/13 00:58:27;;;;;;;;;;;11.20;84.70;;;11.46;52.88;98206.72;4969810;28;109169;-87
2023/03/13 01:00:54;;;;;;;;;;;11.20;84.80;;;11.44;53.36;98211.75;4986440;28;108355;-85
2023/03/13 01:03:24;;;;;;;;;;;11.10;84.80;;;11.43;53.16;98205.41;4971067;28;124141;-85
2023/03/13 01:06:01;;;;;;;;;;;11.10;84.80;;;11.43;53.52;98196.31;4979720;28;123857;-88
2023/03/13 01:08:28;;;;;;;;;;;11.10;84.80;;;11.42;53.37;98191.94;4955153;28;111668;-86
2023/03/13 01:11:02;;;;;;;;;;;11.10;84.90;;;11.41;53.19;98177.28;4963935;28;108740;-86
2023/03/13 01:13:31;;;;;;;;;;;11.10;85.00;;;11.41;53.31;98177.28;4958224;28;123722;-84
2023/03/13 01:16:17;;;;;;;;;;;11.10;85.10;;;11.41;53.52;98174.50;4968484;28;124617;-85
2023/03/13 01:18:47;;;;;;;;;;;11.10;85.20;;;11.41;53.45;98166.22;4953319;28;110367;-88
2023/03/13 01:21:13;;;;;;;;;;;11.10;85.30;;;11.42;53.57;98165.09;4963993;28;109362;-89
2023/03/13 01:23:40;;;;;;;;;;;11.10;85.40;;;11.42;53.51;98159.56;4976610;28;124292;-85
2023/03/13 01:26:08;;;;;;;;;;;11.10;85.40;;;11.44;53.64;98143.41;4969859;28;123757;-87
2023/03/13 01:28:35;;;;;;;;;;;11.10;85.50;;;11.43;53.69;98144.56;4964087;28;109319;-87
2023/03/13 01:31:10;;;;;;;;;;;11.10;85.60;;;11.43;53.51;98139.03;4957726;28;107693;-86
2023/03/13 01:33:37;;;;;;;;;;;11.10;85.60;;;11.43;53.70;98144.56;4975176;28;124295;-87
2023/03/13 01:36:03;;;;;;;;;;;11.10;85.70;;;11.43;53.78;98133.50;4959983;28;123964;-85
2023/03/13 01:38:30;;;;;;;;;;;11.10;85.70;;;11.42;53.55;98131.88;4966126;28;109501;-85
2023/03/13 01:40:56;;;;;;;;;;;11.10;85.80;;;11.42;53.69;98126.34;4961475;28;108633;-82
2023/03/13 01:43:28;;;;;;;;;;;11.10;85.80;;;11.43;53.56;98122.44;4955553;28;124891;-87
2023/03/13 01:46:06;;;;;;;;;;;11.10;85.90;;;11.44;53.62;98107.44;4968940;28;123504;-84
2023/03/13 01:48:44;;;;;;;;;;;11.10;85.90;;;11.43;54.04;98111.38;4967612;28;109343;-87
2023/03/13 01:51:23;;;;;;;;;;;11.10;86.00;;;11.43;53.48;98105.84;4954245;28;108835;-86
2023/03/13 01:53:55;;;;;;;;;;;11.10;86.00;;;11.43;53.83;98105.84;4957356;28;124095;-85
2023/03/13 01:56:39;;;;;;;;;;;11.10;86.00;;;11.43;53.83;98102.28;4956250;28;123971;-85
2023/03/13 01:59:08;;;;;;;;;;;11.10;86.10;;;11.41;53.85;98096.25;4974905;28;109243;-87
2023/03/13 02:01:34;;;;;;;;;;;11.10;86.20;;;11.41;54.12;98091.53;4977328;28;108040;-88
2023/03/13 02:04:00;;;;;;;;;;;11.10;86.20;;;11.40;53.92;98078.84;4974670;28;124177;-87
2023/03/13 02:06:29;;;;;;;;;;;11.10;86.30;;;11.42;54.00;98076.56;4971980;28;123994;-88
2023/03/13 02:08:58;;;;;;;;;;;11.10;86.30;;;11.45;53.98;98067.59;4973475;28;110560;-87
2023/03/13 02:12:01;;;;;;;;;;;11.10;86.40;;;11.46;53.93;98060.09;4973580;28;109658;-88
2023/03/13 02:14:29;;;;;;;;;;;11.10;86.50;;;11.45;53.81;98062.06;4978193;28;124442;-84
2023/03/13 02:16:56;;;;;;;;;;;11.10;86.50;;;11.46;53.86;98060.91;4989417;28;124699;-86
2023/03/13 02:19:47;;;;;;;;;;;11.10;86.50;;;11.46;53.68;98060.91;4984520;28;109326;-87
2023/03/13 02:22:31;;;;;;;;;;;11.10;86.50;;;11.47;53.77;98062.53;4974069;28;108881;-88
2023/03/13 02:25:16;;;;;;;;;;;11.10;86.50;;;11.47;53.91;98057.00;4972285;28;124069;-87
2023/03/13 02:27:42;;;;;;;;;;;11.10;86.50;;;11.47;54.14;98057.00;4977080;28;124380;-87
2023/03/13 02:30:11;;;;;;;;;;;11.10;86.50;;;11.47;53.98;98051.47;4972150;28;110092;-87
2023/03/13 02:32:38;;;;;;;;;;;11.10;86.50;;;11.47;53.83;98053.41;4975324;28;107591;-86
2023/03/13 02:35:10;;;;;;;;;;;11.10;86.40;;;11.49;53.56;98043.63;4970581;28;124995;-87
2023/03/13 02:37:38;;;;;;;;;;;11.10;86.40;;;11.51;53.57;98040.53;4972984;28;124065;-87
2023/03/13 02:40:10;;;;;;;;;;;11.10;86.30;;;11.55;53.33;98037.91;4972959;28;110330;-88
2023/03/13 02:42:38;;;;;;;;;;;11.10;86.30;;;11.55;53.75;98024.88;4977125;28;108720;-87
2023/03/13 02:45:05;;;;;;;;;;;11.20;86.30;;;11.58;53.59;98021.44;4974603;28;124964;-85
2023/03/13 02:47:31;;;;;;;;;;;11.20;86.30;;;11.59;53.31;98019.50;4975676;28;123444;-86
2023/03/13 02:49:57;;;;;;;;;;;11.20;86.20;;;11.62;53.61;98013.28;4972976;28;109372;-88
2023/03/13 02:52:27;;;;;;;;;;;11.20;86.20;;;11.64;53.42;97997.16;4973099;28;109678;-87
2023/03/13 02:55:00;;;;;;;;;;;11.20;86.20;;;11.67;53.08;98002.00;4987843;28;123946;-87
2023/03/13 02:57:26;;;;;;;;;;;11.20;86.20;;;11.69;53.17;97996.94;4974541;28;124643;-87
2023/03/13 02:59:53;;;;;;;;;;;11.30;86.30;;;11.70;53.51;97990.25;4975791;28;110581;-87
2023/03/13 03:02:21;;;;;;;;;;;11.40;86.40;;;11.72;53.30;97985.19;4975858;28;109435;-87
2023/03/13 03:04:47;;;;;;;;;;;11.30;86.30;;;11.75;53.22;97972.63;4975631;28;125393;-88
2023/03/13 03:07:14;;;;;;;;;;;11.30;86.40;;;11.77;53.64;97976.69;4994402;28;123641;-87
2023/03/13 03:09:40;;;;;;;;;;;11.30;86.40;;;11.80;53.46;97976.00;4971917;28;109663;-89
2023/03/13 03:12:07;;;;;;;;;;;11.40;86.40;;;11.83;53.35;97964.25;4974908;28;108627;-87
2023/03/13 03:14:33;;;;;;;;;;;11.40;86.40;;;11.87;53.10;97961.63;4972593;28;124140;-87
2023/03/13 03:17:00;;;;;;;;;;;11.40;86.40;;;11.90;53.16;97964.53;4972006;28;123169;-86
2023/03/13 03:19:26;;;;;;;;;;;11.50;86.60;;;11.93;53.41;97957.50;4973601;28;109075;-87
2023/03/13 03:21:52;;;;;;;;;;;11.50;86.60;;;11.96;53.33;97944.94;4990076;28;107813;-87
2023/03/13 03:24:19;;;;;;;;;;;11.50;86.80;;;11.98;53.87;97950.91;4989247;28;124501;-87
2023/03/13 03:26:45;;;;;;;;;;;11.50;86.90;;;12.00;53.79;97952.19;4965611;28;124331;-87
2023/03/13 03:29:12;;;;;;;;;;;11.60;87.10;;;12.01;53.93;97956.59;4990337;28;107565;-87
2023/03/13 03:31:38;;;;;;;;;;;11.60;87.30;;;12.04;54.21;97946.81;4967765;28;107772;-88
2023/03/13 03:34:04;;;;;;;;;;;11.60;87.50;;;12.06;54.36;97944.47;4954007;28;125964;-88
2023/03/13 03:36:31;;;;;;;;;;;11.60;87.80;;;12.09;54.13;97938.25;4959944;28;124475;-87
2023/03/13 03:38:58;;;;;;;;;;;11.70;88.00;;;12.09;54.32;97928.00;4969615;28;108405;-87
2023/03/13 03:41:24;;;;;;;;;;;11.70;88.30;;;12.14;54.86;97940.78;4998124;28;107735;-86
2023/03/13 03:43:50;;;;;;;;;;;11.70;88.20;;;12.17;54.92;97931.81;4971270;28;123261;-85
2023/03/13 03:46:17;;;;;;;;;;;11.70;88.50;;;12.18;54.58;97933.44;4955920;28;124255;-86
2023/03/13 03:48:43;;;;;;;;;;;11.80;88.50;;;12.18;54.66;97930.66;4951811;28;110490;-87
2023/03/13 03:51:11;;;;;;;;;;;11.80;88.60;;;12.23;54.74;97929.63;4956069;28;109626;-87
2023/03/13 03:53:37;;;;;;;;;;;11.80;88.70;;;12.25;54.93;97930.91;4965843;28;123221;-88
2023/03/13 03:56:04;;;;;;;;;;;11.80;89.10;;;12.26;55.14;97937.25;4971621;28;123610;-88
2023/03/13 03:58:30;;;;;;;;;;;11.80;89.00;;;12.26;55.33;97928.94;4976690;28;108927;-87
2023/03/13 04:00:57;;;;;;;;;;;11.90;89.30;;;12.28;55.08;97927.44;4956002;28;109302;-87
2023/03/13 04:03:24;;;;;;;;;;;11.90;89.30;;;12.32;55.45;97941.41;4963558;28;124351;-87
2023/03/13 04:05:50;;;;;;;;;;;11.90;89.50;;;12.34;55.34;97936.34;4989456;28;122781;-87
2023/03/13 04:08:16;;;;;;;;;;;11.90;89.70;;;12.37;55.32;97928.13;4970603;28;109525;-86
2023/03/13 04:10:43;;;;;;;;;;;12.00;90.00;;;12.38;55.82;97929.78;4971883;28;108677;-87
2023/03/13 04:13:09;;;;;;;;;;;12.00;90.10;;;12.44;56.54;97929.50;4973229;28;124001;-83
2023/03/13 04:15:37;;;;;;;;;;;12.00;90.50;;;12.46;56.62;97918.91;4968320;28;124284;-85
2023/03/13 04:18:04;;;;;;;;;;;12.00;90.70;;;12.48;57.07;97925.72;5000304;28;108131;-81
2023/03/13 04:20:30;;;;;;;;;;;12.10;91.10;;;12.54;58.12;97927.09;4970472;28;108440;-83
2023/03/13 04:22:57;;;;;;;;;;;12.10;91.60;;;12.62;58.49;97916.25;4974044;28;123377;-87
2023/03/13 04:25:23;;;;;;;;;;;12.20;92.00;;;12.69;59.09;97911.72;4971319;28;124161;-87
2023/03/13 04:27:49;;;;;;;;;;;12.30;92.40;;;12.77;59.33;97907.22;4972617;28;109469;-85
2023/03/13 04:30:16;;;;;;;;;;;12.30;92.70;;;12.85;59.83;97903.50;4958468;28;108854;-86
2023/03/13 04:32:42;;;;;;;;;;;12.40;93.10;;;12.94;59.79;97901.41;4970576;28;124133;-85
2023/03/13 04:35:09;;;;;;;;;;;12.50;93.10;;;13.02;59.69;97891.34;4973882;28;124581;-87
2023/03/13 04:37:35;;;;;;;;;;;12.60;93.10;;;13.10;59.65;97909.00;4973935;28;111391;-88
2023/03/13 04:40:01;;;;;;;;;;;12.60;93.10;;;13.15;59.49;97884.59;4970728;28;109585;-86
2023/03/13 04:42:28;;;;;;;;;;;12.70;93.20;;;13.22;59.68;97904.22;4976104;28;124489;-86
2023/03/13 04:44:54;;;;;;;;;;;12.80;93.20;;;13.29;59.74;97884.22;4967444;28;124012;-87
2023/03/13 04:47:20;;;;;;;;;;;12.80;93.20;;;13.32;59.51;97902.94;4971223;28;109184;-87
2023/03/13 04:49:47;;;;;;;;;;;12.90;93.30;;;13.36;59.43;97889.19;4970583;28;108878;-85
2023/03/13 04:52:13;;;;;;;;;;;12.90;93.20;;;13.39;59.50;97894.81;4970829;28;124282;-83
2023/03/13 04:54:39;;;;;;;;;;;13.50;93.40;;;13.43;59.29;97887.41;4974079;28;123967;-85
2023/03/13 04:57:06;;;;;;;;;;;13.00;93.20;;;13.48;59.15;97894.66;4974377;28;109960;-82
2023/03/13 04:59:32;;;;;;;;;;;13.10;93.10;;;13.50;58.99;97886.78;4971085;28;108718;-83
2023/03/13 05:01:58;;;;;;;;;;;13.10;93.10;;;13.54;59.04;97884.09;4987849;28;123594;-86
2023/03/13 05:04:25;;;;;;;;;;;13.20;93.10;;;13.56;59.12;97899.25;4970371;28;124251;-86
2023/03/13 05:06:51;;;;;;;;;;;13.20;93.10;;;13.57;59.15;97884.22;4973078;28;109281;-85
2023/03/13 05:09:17;;;;;;;;;;;13.20;93.00;;;13.62;58.99;97889.53;4971403;28;108808;-84
2023/03/13 05:11:44;;;;;;;;;;;13.20;93.30;;;13.65;58.89;97890.78;4972546;28;125098;-86
2023/03/13 05:14:10;;;;;;;;;;;13.20;93.10;;;13.67;58.74;97883.72;4974564;28;123602;-86
2023/03/13 05:16:39;;;;;;;;;;;13.20;93.00;;;13.68;58.92;97890.88;4969804;28;109338;-86
2023/03/13 05:19:06;;;;;;;;;;;13.30;93.10;;;13.70;58.88;97894.09;4972869;28;108078;-86
2023/03/13 05:21:32;;;;;;;;;;;13.30;93.00;;;13.70;58.83;97871.91;4970662;28;123939;-86
2023/03/13 05:23:58;;;;;;;;;;;13.30;93.00;;;13.73;58.77;97886.19;4970231;28;123883;-85
2023/03/13 05:26:25;;;;;;;;;;;13.30;93.00;;;13.73;58.72;97888.97;4970222;28;110511;-84
2023/03/13 05:28:51;;;;;;;;;;;13.30;93.00;;;13.73;58.79;97914.78;4995552;28;107852;-85
2023/03/13 05:31:17;;;;;;;;;;;13.30;93.00;;;13.74;58.76;97902.53;4975464;28;124863;-85
2023/03/13 05:33:44;;;;;;;;;;;13.40;93.00;;;13.74;58.64;97901.72;4970217;28;123954;-85
2023/03/13 05:36:10;;;;;;;;;;;13.40;92.90;;;13.76;58.78;97896.63;4989092;28;108317;-85
2023/03/13 05:38:36;;;;;;;;;;;13.40;92.90;;;13.78;58.66;97889.56;4970763;28;108974;-85
2023/03/13 05:41:03;;;;;;;;;;;13.40;92.90;;;13.80;58.52;97887.19;4972641;28;124963;-84
2023/03/13 05:43:29;;;;;;;;;;;13.40;92.90;;;13.82;58.49;97881.31;4974019;28;122772;-85
2023/03/13 05:45:56;;;;;;;;;;;13.40;92.80;;;13.83;58.42;97880.13;4970705;28;109500;-86
2023/03/13 05:48:22;;;;;;;;;;;13.50;92.80;;;13.85;58.61;97872.25;4971043;28;108479;-85
2023/03/13 05:50:48;;;;;;;;;;;13.50;92.90;;;13.87;58.50;97878.28;4969583;28;124366;-85
2023/03/13 05:53:15;;;;;;;;;;;13.50;92.90;;;13.86;58.69;97879.41;4971414;28;124698;-84
2023/03/13 05:55:41;;;;;;;;;;;13.40;92.90;;;13.86;58.41;97877.47;4972427;28;109376;-84
2023/03/13 05:58:07;;;;;;;;;;;13.50;93.00;;;13.86;58.68;97893.28;4971710;28;109001;-83
2023/03/13 06:00:34;;;;;;;;;;;13.50;93.00;;;13.86;58.67;97863.59;4968161;28;124141;-82
2023/03/13 06:03:00;;;;;;;;;;;13.50;93.00;;;13.90;58.46;97860.88;4989366;28;123953;-83
2023/03/13 06:05:27;;;;;;;;;;;13.50;92.90;;;13.91;58.72;97865.28;4956727;28;110515;-81
2023/03/13 06:07:53;;;;;;;;;;;13.50;92.90;;;13.95;58.42;97868.97;4966856;28;109040;-84
2023/03/13 06:10:19;;;;;;;;;;;13.50;92.90;;;13.96;58.60;97878.09;4955332;28;124315;-81
2023/03/13 06:12:55;;;;;;;;;;;13.60;93.00;;;13.97;58.29;97866.63;4987238;28;122867;-84
2023/03/13 06:15:22;;;;;;;;;;;13.60;92.90;;;13.99;58.42;97860.72;4978297;28;110198;-83
2023/03/13 06:17:48;;;;;;;;;;;13.60;92.90;;;14.01;58.31;97875.06;4973389;28;109655;-84
2023/03/13 06:20:15;;;;;;;;;;;13.60;92.90;;;14.04;58.36;97883.47;4975208;28;125133;-82
2023/03/13 06:22:41;;;;;;;;;;;13.60;93.10;;;14.07;58.20;97879.97;4975907;28;123791;-81
2023/03/13 06:25:08;;;;;;;;;;;13.70;92.80;;;14.07;58.15;97885.53;4973736;28;109985;-80
2023/03/13 06:27:34;;;;;;;;;;;13.70;92.80;;;14.10;58.31;97892.34;4969301;28;108853;-80
2023/03/13 06:30:00;;;;;;;;;;;13.70;92.80;;;14.12;58.16;97893.59;4962852;28;124085;-79
2023/03/13 06:32:27;;;;;;;;;;;13.70;92.80;;;14.13;58.10;97878.56;4980905;28;123917;-81
2023/03/13 06:34:53;;;;;;;;;;;13.80;92.90;;;14.15;58.12;97876.19;4960809;28;108285;-82
2023/03/13 06:37:20;;;;;;;;;;;13.80;92.80;;;14.18;58.23;97876.66;4959927;28;109360;-84
2023/03/13 06:39:46;;;;;;;;;;;13.80;92.80;;;14.21;58.12;97862.88;4964412;28;124888;-80
2023/03/13 06:42:13;;;;;;;;;;;13.80;92.90;;;14.23;58.22;97868.84;4968385;28;123958;-87
2023/03/13 06:44:40;;;;;;;;;;;13.90;92.90;;;14.25;58.17;97865.72;4969850;28;109776;-76
2023/03/13 06:47:06;;;;;;;;;;;13.90;92.90;;;14.27;58.36;97863.41;4990258;28;108971;-79
2023/03/13 06:49:33;;;;;;;;;;;13.90;92.90;;;14.29;58.32;97863.81;4966736;28;124178;-79
2023/03/13 06:51:59;;;;;;;;;;;13.90;92.90;;;14.29;58.33;97863.81;4966575;28;125054;-79
2023/03/13 06:54:26;;;;;;;;;;;13.90;92.90;;;14.31;58.42;97867.84;4969919;28;109291;-79
2023/03/13 06:56:56;;;;;;;;;;;13.90;93.00;;;14.32;58.28;97882.59;4969075;28;108965;-82
2023/03/13 06:59:22;;;;;;;;;;;13.90;92.90;;;14.33;58.46;97889.75;4965023;28;124436;-79
2023/03/13 07:01:48;;;;;;;;;;;14.00;93.00;;;14.35;58.39;97884.63;4954296;28;124090;-81
2023/03/13 07:04:15;;;;;;;;;;;14.00;92.90;;;14.36;58.23;97909.28;4962648;28;110310;-78
2023/03/13 07:06:42;;;;;;;;;;;14.00;93.00;;;14.36;58.39;97897.34;4958122;28;109708;-79
2023/03/13 07:09:09;;;;;;;;;;;14.00;92.90;;;14.40;58.46;97891.88;4955678;28;124288;-78
2023/03/13 07:11:35;;;;;;;;;;;14.10;93.00;;;14.41;58.33;97885.97;4974081;28;124559;-82
2023/03/13 07:14:02;;;;;;;;;;;14.00;93.00;;;14.42;58.37;97886.78;4955392;28;109213;-79
2023/03/13 07:16:28;;;;;;;;;;;14.10;93.10;;;14.43;58.52;97889.19;4966462;28;108824;-81
2023/03/13 07:18:54;;;;;;;;;;;14.10;93.00;;;14.45;58.48;97888.81;4967431;28;124423;-80
2023/03/13 07:21:21;;;;;;;;;;;14.10;93.00;;;14.49;58.54;97907.22;4980330;28;123676;-78
2023/03/13 07:23:47;;;;;;;;;;;14.10;93.10;;;14.50;58.50;97892.13;4960703;28;109416;-80
2023/03/13 07:26:14;;;;;;;;;;;14.10;93.20;;;14.49;58.64;97893.31;4956100;28;108794;-80
2023/03/13 07:28:41;;;;;;;;;;;14.10;93.30;;;14.49;58.83;97896.09;4961064;28;124354;-77
2023/03/13 07:31:13;;;;;;;;;;;14.10;93.30;;;14.50;58.55;97875.44;4968304;28;124658;-78
2023/03/13 07:33:40;;;;;;;;;;;14.10;93.30;;;14.51;58.72;97888.19;4956750;28;108423;-80
2023/03/13 07:36:07;;;;;;;;;;;14.20;93.30;;;14.52;58.68;97872.31;4977939;28;108478;-83
2023/03/13 07:38:34;;;;;;;;;;;14.20;93.40;;;14.52;58.96;97872.31;4965027;28;124912;-79
2023/03/13 07:41:00;;;;;;;;;;;14.20;93.30;;;14.53;58.78;97866.44;4987632;28;123295;-79
2023/03/13 07:43:28;;;;;;;;;;;14.20;93.40;;;14.54;59.03;97873.59;4962534;28;109425;-78
2023/03/13 07:45:59;;;;;;;;;;;14.20;93.40;;;14.58;58.76;97876.47;4962952;28;108930;-79
2023/03/13 07:48:39;;;;;;;;;;;14.20;93.40;;;14.59;58.96;97866.97;4960869;28;124144;-80
2023/03/13 07:51:10;;;;;;;;;;;14.20;93.70;;;14.60;58.85;97867.78;4963924;28;123937;-81
2023/03/13 07:53:36;;;;;;;;;;;14.30;93.40;;;14.62;59.01;97865.44;4955569;28;110171;-82
2023/03/13 07:56:06;;;;;;;;;;;14.30;93.40;;;14.64;58.91;97838.06;4961795;28;110181;-82
2023/03/13 07:58:35;;;;;;;;;;;14.30;93.40;;;14.66;59.02;97855.19;4957615;28;124545;-81
2023/03/13 08:01:22;;;;;;;;;;;14.30;93.40;;;14.65;58.66;97839.69;4967818;28;122830;-79
2023/03/13 08:03:49;;;;;;;;;;;14.30;93.40;;;14.67;58.89;97851.22;4997835;28;109089;-81
2023/03/13 08:06:18;;;;;;;;;;;14.30;93.40;;;14.70;58.85;97831.88;4964449;28;110876;-85
2023/03/13 08:08:45;;;;;;;;;;;14.30;93.40;;;14.73;58.78;97830.34;4961094;28;124822;-82
2023/03/13 08:11:15;;;;;;;;;;;14.40;93.40;;;14.77;58.70;97822.88;4970174;28;124595;-81
2023/03/13 08:13:41;;;;;;;;;;;14.40;93.40;;;14.81;58.64;97820.97;4965441;28;109601;-79
2023/03/13 08:16:09;;;;;;;;;;;14.40;93.40;;;14.84;58.59;97802.75;4965910;28;108684;-78
2023/03/13 08:18:37;;;;;;;;;;;14.50;93.40;;;14.87;58.19;97788.13;4956604;28;124455;-78
2023/03/13 08:21:09;;;;;;;;;;;14.50;93.30;;;14.91;58.14;97778.69;4958860;28;124719;-77
2023/03/13 08:23:35;;;;;;;;;;;14.50;93.30;;;14.97;58.10;97787.53;4963535;28;109838;-79
2023/03/13 08:26:06;;;;;;;;;;;14.50;93.20;;;15.02;58.12;97790.84;4989127;28;108945;-79
2023/03/13 08:28:33;;;;;;;;;;;14.60;93.20;;;15.09;57.68;97794.91;4967884;28;124124;-77
2023/03/13 08:31:09;;;;;;;;;;;14.60;93.20;;;15.13;57.77;97796.59;4961508;28;124132;-78
2023/03/13 08:33:35;;;;;;;;;;;14.70;93.10;;;15.17;57.64;97808.59;4967250;28;109580;-79
2023/03/13 08:36:14;;;;;;;;;;;14.70;93.00;;;15.23;57.42;97825.81;4969950;28;108789;-78
2023/03/13 08:38:42;;;;;;;;;;;14.70;93.00;;;15.23;57.21;97818.28;4968554;28;123995;-79
2023/03/13 08:41:16;;;;;;;;;;;14.80;92.90;;;15.27;57.20;97798.84;4966072;28;123994;-79
2023/03/13 08:43:43;;;;;;;;;;;14.90;92.90;;;15.30;57.41;97800.91;4968278;28;110028;-77
2023/03/13 08:46:09;;;;;;;;;;;14.90;92.90;;;15.34;57.13;97790.66;5003798;28;109254;-77
2023/03/13 08:48:36;;;;;;;;;;;14.90;92.80;;;15.40;56.84;97785.59;4988699;28;123149;-82
2023/03/13 08:51:13;;;;;;;;;;;15.00;92.70;;;15.43;56.75;97807.91;4972788;28;123955;-80
2023/03/13 08:53:41;;;;;;;;;;;15.00;92.60;;;15.46;56.77;97807.16;4973257;28;109693;-82
2023/03/13 08:56:09;;;;;;;;;;;15.00;92.50;;;15.50;56.68;97820.34;4959735;28;109199;-80
2023/03/13 08:58:36;;;;;;;;;;;15.10;92.50;;;15.52;56.57;97802.09;4966333;28;124454;-79
2023/03/13 09:01:10;;;;;;;;;;;15.10;92.50;;;15.57;56.43;97809.34;5002114;28;124112;-78
2023/03/13 09:03:37;;;;;;;;;;;15.20;92.40;;;15.61;56.18;97799.09;4969481;28;109297;-79
2023/03/13 09:06:04;;;;;;;;;;;15.20;92.30;;;15.66;56.20;97812.69;4993311;28;107643;-79
2023/03/13 09:08:31;;;;;;;;;;;15.20;92.20;;;15.68;55.89;97790.84;4970658;28;124484;-78
2023/03/13 09:11:06;;;;;;;;;;;15.30;92.20;;;15.73;55.85;97795.34;4988397;28;124518;-79
2023/03/13 09:13:34;;;;;;;;;;;15.30;92.10;;;15.76;55.49;97802.97;4973928;28;109255;-79
2023/03/13 09:16:04;;;;;;;;;;;15.40;92.00;;;15.80;55.47;97806.63;5002358;28;107949;-78
2023/03/13 09:18:30;;;;;;;;;;;15.40;92.00;;;15.84;55.05;97786.00;4971183;28;124265;-78
2023/03/13 09:20:57;;;;;;;;;;;15.40;91.80;;;15.87;55.10;97801.94;4993907;28;124239;-79
2023/03/13 09:23:24;;;;;;;;;;;15.50;91.80;;;15.92;54.89;97786.13;4970156;28;109451;-78
2023/03/13 09:25:55;;;;;;;;;;;16.70;92.20;;;15.94;54.74;97783.78;4970509;28;108852;-78
2023/03/13 09:28:23;;;;;;;;;;;15.50;91.50;;;15.98;54.74;97795.75;4971195;28;124352;-78
2023/03/13 09:30:49;;;;;;;;;;;15.50;91.50;;;16.00;54.59;97785.06;4963700;28;124345;-77
2023/03/13 09:33:16;;;;;;;;;;;15.60;91.50;;;16.02;54.27;97788.28;4973711;28;109960;-77
2023/03/13 09:35:46;;;;;;;;;;;15.60;91.40;;;16.07;54.28;97799.13;5002138;28;109045;-79
2023/03/13 09:38:12;;;;;;;;;;;15.70;91.30;;;16.09;54.07;97813.44;4975136;28;124811;-77
2023/03/13 09:40:41;;;;;;;;;;;15.70;91.20;;;16.12;53.88;97796.81;4973197;28;123914;-76
2023/03/13 09:43:20;;;;;;;;;;;15.70;91.10;;;16.14;53.79;97815.94;4972750;28;109896;-77
2023/03/13 09:45:48;;;;;;;;;;;15.70;91.10;;;16.16;53.86;97810.78;4992346;28;108627;-77
2023/03/13 09:48:33;;;;;;;;;;;15.80;91.00;;;16.19;53.67;97801.69;4957695;28;124758;-79
2023/03/13 09:51:23;;;;;;;;;;;15.80;91.00;;;16.24;53.45;97808.94;4954431;28;124404;-76
2023/03/13 09:53:58;;;;;;;;;;;15.80;90.90;;;16.27;53.59;97808.97;4966689;28;109337;-77
2023/03/13 09:56:30;;;;;;;;;;;15.80;90.90;;;16.32;53.33;97814.22;4963787;28;108766;-79
2023/03/13 09:59:04;;;;;;;;;;;15.90;90.80;;;16.37;53.38;97792.81;4974639;28;123551;-77
2023/03/13 10:01:32;;;;;;;;;;;16.00;90.80;;;16.44;53.28;97785.34;4973020;28;122962;-77
2023/03/13 10:04:04;;;;;;;;;;;16.00;90.80;;;16.54;53.17;97800.59;5000037;28;109219;-79
2023/03/13 10:06:34;;;;;;;;;;;16.10;90.70;;;16.62;52.72;97791.16;4964286;28;108669;-79
2023/03/13 10:09:01;;;;;;;;;;;16.20;90.60;;;16.69;52.54;97780.09;4965469;28;124542;-79
2023/03/13 10:11:41;;;;;;;;;;;16.20;90.40;;;16.74;52.33;97793.72;4957301;28;124032;-78
2023/03/13 10:14:18;;;;;;;;;;;16.30;90.40;;;16.84;52.37;97769.16;4987173;28;109740;-77
2023/03/13 10:17:06;;;;;;;;;;;16.40;90.40;;;16.92;51.60;97766.06;4976378;28;109564;-78
2023/03/13 10:19:41;;;;;;;;;;;16.50;90.10;;;17.02;51.11;97775.75;4959240;28;123503;-79
2023/03/13 10:22:14;;;;;;;;;;;16.60;90.00;;;17.10;51.13;97755.13;4967354;28;123944;-80
2023/03/13 10:24:46;;;;;;;;;;;16.60;89.50;;;17.19;50.96;97764.00;4968125;28;110219;-77
2023/03/13 10:27:14;;;;;;;;;;;16.70;89.20;;;17.28;50.09;97754.53;4976024;28;109954;-77
2023/03/13 10:29:41;;;;;;;;;;;16.80;88.40;;;17.34;49.84;97764.97;4961314;28;125014;-76
2023/03/13 10:32:11;;;;;;;;;;;16.90;87.80;;;17.42;49.57;97755.47;4988821;28;124197;-81
2023/03/13 10:34:59;;;;;;;;;;;17.00;87.70;;;17.51;49.67;97751.56;4985192;28;109098;-76
2023/03/13 10:37:28;;;;;;;;;;;17.00;87.60;;;17.60;49.12;97740.88;4989617;28;108756;-78
2023/03/13 10:40:19;;;;;;;;;;;17.20;87.30;;;17.70;48.87;97736.56;4977873;28;124341;-76
2023/03/13 10:42:45;;;;;;;;;;;17.20;86.90;;;17.77;48.84;97731.84;5001407;28;123693;-76
2023/03/13 10:45:20;;;;;;;;;;;17.30;86.60;;;17.86;48.48;97748.31;4968695;28;109315;-76
2023/03/13 10:47:54;;;;;;;;;;;17.40;86.30;;;17.92;48.26;97727.22;4961910;28;109006;-76
2023/03/13 10:50:23;;;;;;;;;;;17.40;86.00;;;17.96;48.00;97722.44;4953585;28;124842;-76
2023/03/13 10:52:49;;;;;;;;;;;17.50;85.80;;;18.01;47.77;97729.66;4994398;28;123879;-76
2023/03/13 10:55:21;;;;;;;;;;;17.50;85.20;;;18.03;47.80;97722.50;4977290;28;109020;-77
2023/03/13 10:58:02;;;;;;;;;;;17.60;85.30;;;18.09;47.88;97723.72;4952634;28;109430;-77
2023/03/13 11:00:37;;;;;;;;;;;17.70;85.40;;;18.18;47.88;97714.19;4952840;28;124527;-77
2023/03/13 11:03:06;;;;;;;;;;;17.80;85.40;;;18.27;47.83;97692.31;4960389;28;123213;-76
2023/03/13 11:05:37;;;;;;;;;;;17.80;85.30;;;18.39;47.25;97693.94;4957390;28;109466;-76
2023/03/13 11:08:18;;;;;;;;;;;17.90;84.80;;;18.47;47.30;97707.56;5002364;28;108948;-76
2023/03/13 11:10:59;;;;;;;;;;;18.00;84.80;;;18.60;46.77;97704.44;4994281;28;123899;-75
2023/03/13 11:13:38;;;;;;;;;;;18.10;84.20;;;18.64;46.70;97711.66;4973462;28;123382;-74
2023/03/13 11:16:18;;;;;;;;;;;18.20;84.10;;;18.68;46.74;97706.09;4974951;28;111024;-76
2023/03/13 11:19:09;;;;;;;;;;;18.20;84.00;;;18.71;46.49;97692.09;4979984;28;109343;-76